Time;durP1;ratioP1;P1;durP2;ratioP2;P2;SDS_P1;SDS_P2;PMS_P1;PMS_P2;Temp;Humidity;BMP_temperature;BMP_pressure;BME280_temperature;BME280_humidity;BME280_pressure;Samples;Min_cycle;Max_cycle;Signal;HPM_P1;HPM_P2
2022/05/10 00:00:48;;;;;;;;;;;11.70;99.90;;;;;;5075768;28;20032;-58
2022/05/10 00:03:14;;;;;;;41.38;22.65;;;11.60;99.90;;;;;;5074977;28;20273;-57
2022/05/10 00:05:42;;;;;;;39.70;21.75;;;11.70;99.90;;;;;;5075207;28;20040;-57
2022/05/10 00:08:14;;;;;;;33.55;19.10;;;11.70;99.90;;;;;;5075230;28;20349;-57
2022/05/10 00:10:41;;;;;;;32.58;19.90;;;11.60;99.90;;;;;;5074980;28;20466;-57
2022/05/10 00:13:07;;;;;;;35.13;22.25;;;11.60;99.90;;;;;;5074878;28;20421;-57
2022/05/10 00:15:33;;;;;;;38.90;23.30;;;11.60;99.90;;;;;;5074795;28;20109;-57
2022/05/10 00:17:59;;;;;;;42.55;24.30;;;11.50;99.90;;;;;;5074709;28;20028;-57
2022/05/10 00:20:27;;;;;;;38.15;21.75;;;11.50;99.90;;;;;;5075056;28;20089;-57
2022/05/10 00:22:53;;;;;;;38.17;21.40;;;11.50;99.90;;;;;;5074531;28;20029;-57
2022/05/10 00:25:26;;;;;;;42.75;22.67;;;11.50;99.90;;;;;;5074885;28;20032;-57
2022/05/10 00:27:52;;;;;;;34.83;21.30;;;11.40;99.90;;;;;;5074467;28;20033;-57
2022/05/10 00:30:18;;;;;;;36.42;22.67;;;11.40;99.90;;;;;;5074778;28;20051;-58
2022/05/10 00:32:45;;;;;;;38.45;22.63;;;11.40;99.90;;;;;;5074347;28;20039;-58
2022/05/10 00:35:17;;;;;;;37.05;24.85;;;11.50;99.90;;;;;;5074493;28;20462;-57
2022/05/10 00:37:48;;;;;;;38.08;23.65;;;11.50;99.90;;;;;;5074391;28;20035;-57
2022/05/10 00:40:15;;;;;;;;;;;11.40;99.90;;;;;;5074839;28;20028;-57
2022/05/10 00:42:55;;;;;;;36.95;23.25;;;11.40;99.90;;;;;;5074499;28;19913;-57
2022/05/10 00:45:37;;;;;;;38.38;24.33;;;11.40;99.90;;;;;;5074703;28;20107;-58
2022/05/10 00:48:25;;;;;;;41.08;23.67;;;11.40;99.90;;;;;;5074295;28;20189;-57
2022/05/10 00:51:20;;;;;;;40.10;22.67;;;11.30;99.90;;;;;;5074161;28;20032;-57
2022/05/10 00:54:22;;;;;;;39.05;23.23;;;11.40;99.90;;;;;;5064358;28;20039;-57
2022/05/10 00:57:06;;;;;;;37.35;24.10;;;11.30;99.90;;;;;;5074162;28;20024;-57
2022/05/10 00:59:58;;;;;;;40.75;25.17;;;11.40;99.90;;;;;;5074124;28;20036;-57
2022/05/10 01:02:42;;;;;;;;;;;11.30;99.90;;;;;;5074444;28;20382;-57
2022/05/10 01:05:43;;;;;;;41.20;24.40;;;11.30;99.90;;;;;;5074451;28;19908;-57
2022/05/10 01:08:16;;;;;;;42.63;23.55;;;11.30;99.90;;;;;;5074474;28;20057;-57
2022/05/10 01:11:03;;;;;;;34.97;20.75;;;11.20;99.90;;;;;;5073922;28;20043;-57
2022/05/10 01:13:59;;;;;;;42.25;22.58;;;11.20;99.90;;;;;;5074068;28;20397;-57
2022/05/10 01:16:25;;;;;;;40.75;23.42;;;11.20;99.90;;;;;;5051983;28;20501;-57
2022/05/10 01:18:52;;;;;;;36.17;21.52;;;11.10;99.90;;;;;;5073821;28;20137;-57
2022/05/10 01:21:44;;;;;;;38.20;21.50;;;11.10;99.90;;;;;;5073877;28;20393;-57
2022/05/10 01:24:34;;;;;;;36.50;22.02;;;11.10;99.90;;;;;;5073854;28;20470;-57
2022/05/10 01:27:03;;;;;;;33.27;21.77;;;11.10;99.90;;;;;;5073818;28;20028;-57
2022/05/10 01:29:47;;;;;;;36.70;21.50;;;11.00;99.90;;;;;;5073704;28;20036;-57
2022/05/10 01:35:18;;;;;;;35.72;21.05;;;10.90;99.90;;;;;;5073850;28;20033;-57
2022/05/10 01:37:51;;;;;;;33.03;21.23;;;10.80;99.90;;;;;;5073488;28;20024;-57
2022/05/10 01:40:33;;;;;;;39.50;21.92;;;10.80;99.90;;;;;;5073876;28;20093;-57
2022/05/10 01:43:08;;;;;;;36.45;22.63;;;10.80;99.90;;;;;;5073511;28;20477;-57
2022/05/10 01:45:42;;;;;;;37.35;22.52;;;10.80;99.90;;;;;;5073997;28;20032;-57
2022/05/10 01:48:12;;;;;;;39.63;22.20;;;10.70;99.90;;;;;;5073728;28;20028;-57
2022/05/10 01:50:52;;;;;;;39.38;23.80;;;10.70;99.90;;;;;;5073742;28;20043;-57
2022/05/10 01:53:24;;;;;;;41.00;22.13;;;10.80;99.90;;;;;;5073946;28;20151;-57
2022/05/10 01:56:06;;;;;;;34.60;21.58;;;10.80;99.90;;;;;;5073690;28;20053;-57
2022/05/10 01:58:35;;;;;;;38.42;22.25;;;10.70;99.90;;;;;;5073533;28;20025;-58
2022/05/10 02:01:27;;;;;;;44.13;24.08;;;10.70;99.90;;;;;;5073674;28;20115;-57
2022/05/10 02:04:14;;;;;;;43.17;23.27;;;10.60;99.90;;;;;;5055742;28;20037;-57
2022/05/10 02:06:57;;;;;;;39.75;23.02;;;10.60;99.90;;;;;;5073672;28;20055;-57
2022/05/10 02:09:38;;;;;;;38.92;22.52;;;10.60;99.90;;;;;;5073485;28;20064;-57
2022/05/10 02:12:36;;;;;;;40.95;22.35;;;10.50;99.90;;;;;;5073192;28;20063;-57
2022/05/10 02:15:28;;;;;;;36.40;22.48;;;10.50;99.90;;;;;;5068215;28;20037;-57
2022/05/10 02:18:05;;;;;;;34.83;21.35;;;10.50;99.90;;;;;;5073273;28;20473;-57
2022/05/10 02:20:37;;;;;;;38.92;23.23;;;10.40;99.90;;;;;;5073296;28;20033;-57
2022/05/10 02:23:26;;;;;;;38.92;23.48;;;10.50;99.90;;;;;;5073394;28;20113;-57
2022/05/10 02:26:06;;;;;;;39.92;23.70;;;10.50;99.90;;;;;;5026617;28;20049;-57
2022/05/10 02:28:40;;;;;;;31.92;20.83;;;10.50;99.90;;;;;;5074661;28;20028;-57
2022/05/10 02:33:06;;;;;;;34.53;21.42;;;10.50;99.90;;;;;;5076988;28;20473;-57
2022/05/10 02:34:20;;;;;;;34.88;23.17;;;10.40;99.90;;;;;;5076734;28;20024;-57
2022/05/10 02:36:46;;;;;;;39.03;22.27;;;10.40;99.90;;;;;;5076738;28;20028;-57
2022/05/10 02:39:12;;;;;;;38.85;22.98;;;10.30;99.90;;;;;;5076694;28;20031;-57
2022/05/10 02:41:38;;;;;;;42.08;23.25;;;10.30;99.90;;;;;;5076923;28;20028;-57
2022/05/10 02:44:05;;;;;;;39.08;22.45;;;10.30;99.90;;;;;;5076664;28;20044;-57
2022/05/10 02:46:31;;;;;;;35.30;23.20;;;10.20;99.90;;;;;;5076457;28;20493;-57
2022/05/10 02:48:57;;;;;;;35.92;23.50;;;10.20;99.90;;;;;;5076480;28;20070;-57
2022/05/10 02:51:23;;;;;;;34.42;22.02;;;10.10;99.90;;;;;;5076670;28;20028;-57
2022/05/10 02:53:49;;;;;;;38.22;23.38;;;10.10;99.90;;;;;;5076366;28;20031;-57
2022/05/10 02:56:20;;;;;;;43.33;25.15;;;10.10;99.90;;;;;;5076408;28;20017;-57
2022/05/10 02:59:18;;;;;;;36.88;22.80;;;10.10;99.90;;;;;;5076469;28;20099;-57
2022/05/10 03:02:03;;;;;;;40.25;23.23;;;10.10;99.90;;;;;;5076224;28;20033;-57
2022/05/10 03:04:37;;;;;;;49.80;23.58;;;10.10;99.90;;;;;;5076189;28;20024;-57
2022/05/10 03:07:06;;;;;;;39.95;23.67;;;10.10;99.90;;;;;;5076285;28;20044;-57
2022/05/10 03:09:32;;;;;;;37.65;23.70;;;10.10;99.90;;;;;;5076124;28;20032;-57
2022/05/10 03:11:58;;;;;;;41.35;24.58;;;10.00;99.90;;;;;;5076176;28;20025;-57
2022/05/10 03:14:24;;;;;;;42.30;24.15;;;10.00;99.90;;;;;;5076163;28;20070;-57
2022/05/10 03:16:50;;;;;;;38.05;24.02;;;10.00;99.90;;;;;;5075801;28;20474;-57
2022/05/10 03:19:17;;;;;;;36.50;23.42;;;10.00;99.90;;;;;;5076036;28;20101;-57
2022/05/10 03:21:43;;;;;;;38.00;23.70;;;10.00;99.90;;;;;;5076045;28;20064;-57
2022/05/10 03:24:09;;;;;;;45.03;24.63;;;10.00;99.90;;;;;;5076047;28;20028;-57
2022/05/10 03:26:36;;;;;;;43.10;23.98;;;10.00;99.90;;;;;;5075928;28;20111;-57
2022/05/10 03:29:03;;;;;;;40.50;22.35;;;9.90;99.90;;;;;;5075685;28;20378;-57
2022/05/10 03:31:30;;;;;;;40.20;22.80;;;9.90;99.90;;;;;;5075850;28;20246;-57
2022/05/10 03:36:40;;;;;;;40.55;24.52;;;9.90;99.90;;;;;;5075693;28;20025;-57
2022/05/10 03:39:07;;;;;;;40.97;23.95;;;9.90;99.90;;;;;;5075320;28;20020;-57
2022/05/10 03:41:33;;;;;;;42.65;23.73;;;9.90;99.90;;;;;;5075718;28;20032;-57
2022/05/10 03:44:00;;;;;;;36.85;23.17;;;10.00;99.90;;;;;;5075409;28;20035;-57
2022/05/10 03:46:26;;;;;;;38.80;23.55;;;10.00;99.90;;;;;;5075566;28;20038;-57
2022/05/10 03:48:53;;;;;;;38.75;23.08;;;9.90;99.90;;;;;;5075436;28;20458;-57
2022/05/10 03:51:19;;;;;;;36.63;22.25;;;9.90;99.90;;;;;;5075558;28;20028;-57
2022/05/10 03:53:44;;;;;;;41.33;23.33;;;9.90;99.90;;;;;;5075410;28;20100;-57
2022/05/10 03:56:11;;;;;;;38.70;24.00;;;10.00;99.90;;;;;;5075657;28;20059;-57
2022/05/10 03:58:37;;;;;;;44.08;24.02;;;10.00;99.90;;;;;;5075481;28;20025;-57
2022/05/10 04:01:06;;;;;;;37.90;23.65;;;10.00;99.90;;;;;;5075278;28;20107;-57
2022/05/10 04:03:32;;;;;;;44.97;23.80;;;10.10;99.90;;;;;;5075093;28;20028;-57
2022/05/10 04:05:58;;;;;;;37.05;23.63;;;10.10;99.90;;;;;;5074887;28;20027;-57
2022/05/10 04:08:24;;;;;;;33.80;21.98;;;10.10;99.90;;;;;;5075195;28;20025;-57
2022/05/10 04:10:50;;;;;;;40.67;23.35;;;10.20;99.90;;;;;;5074909;28;20025;-57
2022/05/10 04:13:16;;;;;;;47.13;24.85;;;10.20;99.90;;;;;;5074906;28;20104;-57
2022/05/10 04:15:42;;;;;;;39.45;22.55;;;10.30;99.90;;;;;;5074713;28;20091;-57
2022/05/10 04:18:08;;;;;;;33.63;22.05;;;10.30;99.90;;;;;;5074739;28;20032;-57
2022/05/10 04:20:34;;;;;;;32.58;20.90;;;10.40;99.90;;;;;;5074780;28;20040;-57
2022/05/10 04:23:00;;;;;;;32.15;21.15;;;10.40;99.90;;;;;;5074926;28;20036;-57
2022/05/10 04:25:26;;;;;;;30.17;20.23;;;10.50;99.90;;;;;;5074716;28;20390;-57
2022/05/10 04:27:54;;;;;;;28.48;18.98;;;10.60;99.90;;;;;;5074403;28;20033;-57
2022/05/10 04:30:21;;;;;;;31.65;19.08;;;10.80;99.90;;;;;;5074779;28;20033;-57
2022/05/10 04:32:47;;;;;;;31.80;17.48;;;10.90;99.90;;;;;;5074228;28;20036;-57
2022/05/10 04:35:13;;;;;;;28.83;16.90;;;11.00;99.90;;;;;;5074553;28;20158;-57
2022/05/10 04:37:39;;;;;;;28.13;17.00;;;11.10;99.90;;;;;;5074674;28;20058;-57
2022/05/10 04:43:09;;;;;;;26.05;16.83;;;11.40;99.90;;;;;;5012247;28;20109;-57
2022/05/10 04:45:35;;;;;;;28.98;17.27;;;11.60;99.90;;;;;;5061694;28;20549;-57
2022/05/10 04:48:01;;;;;;;30.50;17.45;;;11.60;99.90;;;;;;5074223;28;20036;-57
2022/05/10 04:50:27;;;;;;;30.80;15.90;;;11.80;99.90;;;;;;5073765;28;20028;-57
2022/05/10 04:52:53;;;;;;;25.63;16.77;;;11.90;99.90;;;;;;5073963;28;20032;-57
2022/05/10 04:55:20;;;;;;;27.35;16.95;;;12.00;99.90;;;;;;5074146;28;20451;-57
2022/05/10 04:57:47;;;;;;;31.58;17.52;;;12.20;99.90;;;;;;5074109;28;20078;-57
2022/05/10 05:00:20;;;;;;;30.63;18.33;;;12.30;99.90;;;;;;5074240;28;20032;-57
2022/05/10 05:02:46;;;;;;;29.20;16.80;;;12.50;99.90;;;;;;5073793;28;20043;-58
2022/05/10 05:05:13;;;;;;;40.92;19.13;;;12.60;99.90;;;;;;5074183;28;20040;-57
2022/05/10 05:07:40;;;;;;;40.10;18.08;;;12.70;99.90;;;;;;5074508;28;20067;-58
2022/05/10 05:10:07;;;;;;;29.13;18.30;;;13.00;99.90;;;;;;5073833;28;20050;-57
2022/05/10 05:12:34;;;;;;;28.27;16.98;;;13.20;99.90;;;;;;5074194;28;20481;-58
2022/05/10 05:15:02;;;;;;;28.55;16.90;;;13.30;99.90;;;;;;5073663;28;20036;-57
2022/05/10 05:17:32;;;;;;;27.83;17.40;;;13.50;99.90;;;;;;5074126;28;20116;-58
2022/05/10 05:19:58;;;;;;;31.67;16.65;;;13.70;99.90;;;;;;5073729;28;20048;-58
2022/05/10 05:22:26;;;;;;;25.88;16.38;;;13.80;99.90;;;;;;5073697;28;20072;-57
2022/05/10 05:24:53;;;;;;;28.02;19.40;;;14.00;99.90;;;;;;5065377;28;20112;-58
2022/05/10 05:27:19;;;;;;;36.70;18.42;;;14.10;99.90;;;;;;5062820;28;20394;-58
2022/05/10 05:29:46;;;;;;;38.17;19.48;;;14.20;99.90;;;;;;5064469;28;20028;-57
2022/05/10 05:32:13;;;;;;;39.95;20.48;;;14.30;99.90;;;;;;5053813;28;20504;-57
2022/05/10 05:34:39;;;;;;;50.38;23.13;;;14.40;99.90;;;;;;5090673;28;20028;-58
2022/05/10 05:39:51;;;;;;;42.60;22.63;;;14.60;99.90;;;;;;5058290;28;20036;-58
2022/05/10 05:42:18;;;;;;;46.30;22.42;;;14.70;99.90;;;;;;5070428;28;20548;-57
2022/05/10 05:44:44;;;;;;;35.25;20.52;;;14.90;99.90;;;;;;5061680;28;20036;-58
2022/05/10 05:47:10;;;;;;;33.72;20.73;;;15.10;99.90;;;;;;5073137;28;20032;-57
2022/05/10 05:49:37;;;;;;;40.97;22.58;;;15.20;99.90;;;;;;5061765;28;20033;-58
2022/05/10 05:52:04;;;;;;;36.63;20.25;;;15.30;99.90;;;;;;5054696;28;20123;-58
2022/05/10 05:54:31;;;;;;;35.58;20.30;;;15.40;99.90;;;;;;5065429;28;20448;-58
2022/05/10 05:57:07;;;;;;;34.80;19.90;;;15.60;99.90;;;;;;5063996;28;20059;-58
2022/05/10 05:59:34;;;;;;;41.70;21.10;;;15.70;99.90;;;;;;5073615;28;20115;-58
2022/05/10 06:02:00;;;;;;;34.45;20.05;;;15.80;99.90;;;;;;5074084;28;20052;-57
2022/05/10 06:04:26;;;;;;;36.25;22.98;;;15.90;99.90;;;;;;5067177;28;20113;-58
2022/05/10 06:06:52;;;;;;;46.05;25.13;;;16.00;99.90;;;;;;5070002;28;20474;-57
2022/05/10 06:09:22;;;;;;;57.85;27.88;;;16.20;99.90;;;;;;5059558;28;20032;-58
2022/05/10 06:11:49;;;;;;;45.72;23.63;;;16.30;99.90;;;;;;5071811;28;20062;-57
2022/05/10 06:14:16;;;;;;;63.00;25.55;;;16.40;99.90;;;;;;5069297;28;20036;-58
2022/05/10 06:16:42;;;;;;;61.22;24.15;;;16.50;99.90;;;;;;5065107;28;20104;-57
2022/05/10 06:19:10;;;;;;;52.30;23.35;;;16.60;99.90;;;;;;5064990;28;20132;-58
2022/05/10 06:21:36;;;;;;;61.63;23.42;;;16.80;99.90;;;;;;5067019;28;20067;-57
2022/05/10 06:24:02;;;;;;;49.47;23.40;;;16.80;99.90;;;;;;5059062;28;20039;-58
2022/05/10 06:26:28;;;;;;;53.03;21.83;;;17.10;99.90;;;;;;5058710;28;20036;-57
2022/05/10 06:29:12;;;;;;;47.25;22.17;;;17.10;99.90;;;;;;5069639;28;20026;-58
2022/05/10 06:31:43;;;;;;;52.95;22.23;;;17.40;99.90;;;;;;5062475;28;20020;-58
2022/05/10 06:34:14;;;;;;;54.72;20.88;;;17.60;99.90;;;;;;5074431;28;20032;-58
2022/05/10 06:36:41;;;;;;;37.13;18.52;;;17.80;99.90;;;;;;5076289;28;20371;-57
2022/05/10 06:39:08;;;;;;;48.72;19.52;;;17.80;99.90;;;;;;5076942;28;20036;-58
2022/05/10 06:41:35;;;;;;;35.92;19.02;;;17.90;99.90;;;;;;5076261;28;20033;-58
2022/05/10 06:44:01;;;;;;;45.20;18.77;;;18.10;99.90;;;;;;5070692;28;20020;-58
2022/05/10 06:46:31;;;;;;;39.03;19.40;;;18.40;99.90;;;;;;5075654;28;20140;-58
2022/05/10 06:48:57;;;;;;;45.00;20.45;;;18.50;99.90;;;;;;5076139;28;20028;-58
2022/05/10 06:51:23;;;;;;;49.38;20.08;;;18.70;99.90;;;;;;5077359;28;20474;-58
2022/05/10 06:53:50;;;;;;;41.20;18.45;;;18.70;99.90;;;;;;5076943;28;20021;-58
2022/05/10 06:56:16;;;;;;;46.40;21.52;;;18.80;99.90;;;;;;5076860;28;20052;-58
2022/05/10 06:58:42;;;;;;;40.10;19.73;;;19.10;99.90;;;;;;5058763;28;20020;-58
2022/05/10 07:01:13;;;;;;;40.97;21.33;;;18.90;99.90;;;;;;5076609;28;20103;-58
2022/05/10 07:03:44;;;;;;;38.97;20.20;;;19.00;99.90;;;;;;5076524;28;20173;-58
2022/05/10 07:06:14;;;;;;;42.10;20.75;;;19.30;99.90;;;;;;5072630;28;20032;-58
2022/05/10 07:08:41;;;;;;;43.90;18.73;;;19.60;99.90;;;;;;5072122;28;20020;-58
2022/05/10 07:11:06;;;;;;;44.55;18.90;;;19.50;99.90;;;;;;5078694;28;20040;-58
2022/05/10 07:13:33;;;;;;;44.00;18.77;;;19.50;99.90;;;;;;5089889;28;20027;-58
2022/05/10 07:16:00;;;;;;;37.88;17.63;;;19.50;99.90;;;;;;5082552;28;20082;-58
2022/05/10 07:18:26;;;;;;;40.55;19.55;;;19.60;99.90;;;;;;5096488;28;20106;-58
2022/05/10 07:20:52;;;;;;;38.53;17.98;;;19.80;99.90;;;;;;5095925;28;20059;-58
2022/05/10 07:23:36;;;;;;;40.15;18.80;;;19.70;99.90;;;;;;5081391;28;20111;-58
2022/05/10 07:26:03;;;;;;;46.65;23.88;;;19.80;99.90;;;;;;5089554;28;20100;-58
2022/05/10 07:28:30;;;;;;;42.28;23.17;;;20.00;99.90;;;;;;5096282;28;20055;-58
2022/05/10 07:30:59;;;;;;;45.28;26.83;;;20.10;99.70;;;;;;5096312;28;20409;-58
2022/05/10 07:33:27;;;;;;;46.78;29.88;;;20.10;99.90;;;;;;5096059;28;20462;-58
2022/05/10 07:38:40;;;;;;;51.72;31.90;;;20.10;99.90;;;;;;5081234;28;20386;-58
2022/05/10 07:41:06;;;;;;;71.65;35.05;;;20.20;99.90;;;;;;5069085;28;20481;-58
2022/05/10 07:43:35;;;;;;;59.15;38.47;;;20.50;99.90;;;;;;5073730;28;20061;-58
2022/05/10 07:46:01;;;;;;;46.17;25.88;;;20.80;98.90;;;;;;5069867;28;20052;-58
2022/05/10 07:48:28;;;;;;;45.38;23.20;;;20.70;96.60;;;;;;5072745;28;20447;-58
2022/05/10 07:50:55;;;;;;;37.15;21.02;;;20.60;98.20;;;;;;5072024;28;20502;-58
2022/05/10 07:53:22;;;;;;;41.17;25.08;;;20.60;97.00;;;;;;5067529;28;20017;-58
2022/05/10 07:55:48;;;;;;;55.95;27.58;;;20.50;98.70;;;;;;5061613;28;20201;-58
2022/05/10 07:58:14;;;;;;;43.38;24.85;;;20.70;98.70;;;;;;5073825;28;20388;-58
2022/05/10 08:00:41;;;;;;;34.80;21.85;;;20.90;98.30;;;;;;5055424;28;20055;-58
2022/05/10 08:03:29;;;;;;;31.88;16.05;;;20.90;98.80;;;;;;5055217;28;20033;-58
2022/05/10 08:05:59;;;;;;;30.13;16.73;;;20.90;98.40;;;;;;5065466;28;20382;-58
2022/05/10 08:08:37;;;;;;;33.35;15.68;;;20.70;99.90;;;;;;5059943;28;20033;-58
2022/05/10 08:11:08;;;;;;;38.97;15.43;;;20.70;99.60;;;;;;5065282;28;20466;-58
2022/05/10 08:13:36;;;;;;;29.77;13.75;;;20.90;99.90;;;;;;5075742;28;20115;-58
2022/05/10 08:16:03;;;;;;;26.75;14.73;;;20.90;98.90;;;;;;5075722;28;20032;-58
2022/05/10 08:18:34;;;;;;;29.17;14.43;;;20.60;98.60;;;;;;5075789;28;20054;-58
2022/05/10 08:21:01;;;;;;;23.75;14.20;;;20.40;98.30;;;;;;5075683;28;20036;-58
2022/05/10 08:23:30;;;;;;;29.13;15.20;;;20.40;99.90;;;;;;5075366;28;20458;-58
2022/05/10 08:25:58;;;;;;;27.58;15.10;;;20.30;99.90;;;;;;5073772;28;20040;-58
2022/05/10 08:28:27;;;;;;;27.30;15.13;;;20.50;99.90;;;;;;5074600;28;20102;-58
2022/05/10 08:30:53;;;;;;;35.20;16.45;;;20.50;98.20;;;;;;5074864;28;20035;-58
2022/05/10 08:33:23;;;;;;;31.27;15.90;;;20.40;99.40;;;;;;5074784;28;20450;-58
2022/05/10 08:35:54;;;;;;;;;;;20.40;99.40;;;;;;5075300;28;20097;-58
2022/05/10 08:38:24;;;;;;;25.00;15.85;;;20.50;99.90;;;;;;5074969;28;19940;-58
2022/05/10 08:41:11;;;;;;;30.42;15.80;;;20.70;99.50;;;;;;5074701;28;20044;-58
2022/05/10 08:43:46;;;;;;;33.45;16.45;;;20.80;99.90;;;;;;5074732;28;20478;-58
2022/05/10 08:46:21;;;;;;;26.55;15.35;;;20.80;99.80;;;;;;5074858;28;20036;-58
2022/05/10 08:48:50;;;;;;;29.00;16.90;;;20.60;99.90;;;;;;5074349;28;20024;-58
2022/05/10 08:51:16;;;;;;;25.10;15.33;;;20.70;98.50;;;;;;5074305;28;20033;-58
2022/05/10 08:53:42;;;;;;;28.55;15.93;;;21.10;99.90;;;;;;5074706;28;20054;-59
2022/05/10 08:56:34;;;;;;;23.13;14.02;;;21.40;98.70;;;;;;5074422;28;20025;-58
2022/05/10 08:59:10;;;;;;;;;;;21.90;97.00;;;;;;5061185;28;20044;-58
2022/05/10 09:01:46;;;;;;;31.45;14.82;;;22.20;94.90;;;;;;5074486;28;20408;-59
2022/05/10 09:04:34;;;;;;;28.02;14.20;;;22.50;92.50;;;;;;5074409;28;20032;-58
2022/05/10 09:07:11;;;;;;;22.48;12.07;;;22.60;89.50;;;;;;5074628;28;20025;-59
2022/05/10 09:10:14;;;;;;;29.10;12.15;;;23.00;93.80;;;;;;5074218;28;20036;-58
2022/05/10 09:12:48;;;;;;;21.38;10.63;;;23.40;92.40;;;;;;5074217;28;20032;-58
2022/05/10 09:15:15;;;;;;;16.38;10.60;;;23.20;75.50;;;;;;5073620;28;20435;-59
2022/05/10 09:17:41;;;;;;;29.13;11.90;;;23.30;75.90;;;;;;5074317;28;20024;-59
2022/05/10 09:20:09;;;;;;;25.30;9.95;;;23.00;81.80;;;;;;5074065;28;20049;-59
2022/05/10 09:22:56;;;;;;;16.85;9.32;;;22.90;78.80;;;;;;5073707;28;20024;-59
2022/05/10 09:25:43;;;;;;;21.85;9.98;;;22.90;82.20;;;;;;5073068;28;20509;-58
2022/05/10 09:28:28;;;;;;;30.83;10.85;;;23.00;79.40;;;;;;5073919;28;20029;-59
2022/05/10 09:36:32;;;;;;;20.90;9.13;;;23.10;75.60;;;;;;5053534;28;20029;-59
2022/05/10 09:39:18;;;;;;;23.05;9.02;;;23.20;85.50;;;;;;5061051;28;20036;-58
2022/05/10 09:41:51;;;;;;;28.40;9.75;;;23.10;78.60;;;;;;5069186;28;20035;-59
2022/05/10 09:44:24;;;;;;;23.15;8.88;;;23.10;80.10;;;;;;5077713;28;20044;-58
2022/05/10 09:46:51;;;;;;;13.38;6.88;;;23.20;80.80;;;;;;5077847;28;20032;-59
2022/05/10 09:49:34;;;;;;;14.52;7.28;;;23.40;84.40;;;;;;5078617;28;20046;-58
2022/05/10 09:52:01;;;;;;;12.25;5.47;;;23.60;72.20;;;;;;5074699;28;20032;-58
2022/05/10 09:54:39;;;;;;;10.27;6.40;;;24.20;76.30;;;;;;5078723;28;20032;-59
2022/05/10 09:57:13;;;;;;;19.33;8.13;;;24.70;69.20;;;;;;5078619;28;20105;-59
2022/05/10 09:59:43;;;;;;;16.80;5.72;;;25.10;61.00;;;;;;5078520;28;20040;-59
2022/05/10 10:02:09;;;;;;;18.00;6.88;;;25.00;59.40;;;;;;5078755;28;20064;-59
2022/05/10 10:04:42;;;;;;;19.83;7.30;;;25.10;58.40;;;;;;5078527;28;20020;-59
2022/05/10 10:07:17;;;;;;;7.20;4.95;;;25.30;61.60;;;;;;5077710;28;20035;-59
2022/05/10 10:09:55;;;;;;;11.82;6.00;;;25.00;56.20;;;;;;5073410;28;20578;-59
2022/05/10 10:12:40;;;;;;;9.07;5.03;;;25.00;59.80;;;;;;5061287;28;20112;-59
2022/05/10 10:15:30;;;;;;;16.08;5.85;;;25.30;59.70;;;;;;5063054;28;20095;-59
2022/05/10 10:17:59;;;;;;;12.05;5.53;;;25.40;57.30;;;;;;5067465;28;20020;-59
2022/05/10 10:20:53;;;;;;;7.53;4.38;;;25.90;58.00;;;;;;5070104;28;21329;-59
2022/05/10 10:23:21;;;;;;;7.82;4.40;;;26.20;54.80;;;;;;5063898;28;20157;-59
2022/05/10 10:25:49;;;;;;;9.20;4.75;;;26.40;53.40;;;;;;5064503;28;20028;-59
2022/05/10 10:28:31;;;;;;;8.40;4.10;;;26.20;57.20;;;;;;5045232;28;20040;-59
2022/05/10 10:31:05;;;;;;;13.07;5.88;;;26.30;52.50;;;;;;5069524;28;20041;-59
2022/05/10 10:34:12;;;;;;;16.77;5.30;;;25.80;55.90;;;;;;5081908;28;20021;-59
2022/05/10 10:36:51;;;;;;;5.97;4.53;;;25.80;54.60;;;;;;5065803;28;20029;-59
2022/05/10 10:39:42;;;;;;;8.05;4.25;;;25.90;54.00;;;;;;5065810;28;20024;-59
2022/05/10 10:42:23;;;;;;;14.60;5.30;;;25.90;55.00;;;;;;5057619;28;20032;-59
2022/05/10 10:44:55;;;;;;;9.55;4.47;;;26.10;51.10;;;;;;5072512;28;20021;-59
2022/05/10 10:47:38;;;;;;;9.10;3.90;;;25.80;51.70;;;;;;5077518;28;20028;-59
2022/05/10 10:50:10;;;;;;;12.25;5.03;;;26.70;55.10;;;;;;5070601;28;20036;-59
2022/05/10 10:52:36;;;;;;;5.43;3.80;;;27.30;51.50;;;;;;5071416;28;20032;-59
2022/05/10 10:55:07;;;;;;;10.10;4.10;;;27.20;50.20;;;;;;5067227;28;20024;-59
2022/05/10 10:57:47;;;;;;;12.90;4.63;;;27.20;51.20;;;;;;5077812;28;20105;-59
2022/05/10 11:00:39;;;;;;;5.90;3.45;;;27.70;50.60;;;;;;5077621;28;20033;-59
2022/05/10 11:03:13;;;;;;;6.13;3.50;;;27.70;47.40;;;;;;5063937;28;20617;-59
2022/05/10 11:05:57;;;;;;;10.10;3.70;;;28.00;47.80;;;;;;5076332;28;20043;-59
2022/05/10 11:08:50;;;;;;;11.95;4.22;;;28.30;49.60;;;;;;5076429;28;20035;-59
2022/05/10 11:11:54;;;;;;;8.98;3.83;;;28.80;48.10;;;;;;5075706;28;20063;-59
2022/05/10 11:14:39;;;;;;;6.38;2.92;;;28.70;45.70;;;;;;5022056;28;20037;-59
2022/05/10 11:17:31;;;;;;;9.32;3.45;;;28.80;46.40;;;;;;5068594;28;20021;-59
2022/05/10 11:20:11;;;;;;;8.27;4.90;;;29.10;46.20;;;;;;5076186;28;20044;-59
2022/05/10 11:22:41;;;;;;;18.80;4.72;;;29.10;44.60;;;;;;5076511;28;20020;-59
2022/05/10 11:25:38;;;;;;;7.28;3.30;;;29.20;47.30;;;;;;5075908;28;20466;-59
2022/05/10 11:28:29;;;;;;;6.70;3.00;;;29.80;44.80;;;;;;5075384;28;20032;-59
2022/05/10 11:31:03;;;;;;;8.93;3.25;;;30.30;42.80;;;;;;5066533;28;20091;-59
2022/05/10 11:34:01;;;;;;;9.10;3.65;;;30.10;40.80;;;;;;5073208;28;20024;-59
2022/05/10 11:36:30;;;;;;;6.30;2.90;;;29.60;40.20;;;;;;5070582;28;20588;-59
2022/05/10 11:39:27;;;;;;;8.02;3.53;;;29.40;39.00;;;;;;5055700;28;20033;-59
2022/05/10 11:41:56;;;;;;;4.40;2.67;;;29.00;39.10;;;;;;5064736;28;20115;-59
2022/05/10 11:44:25;;;;;;;12.57;3.83;;;28.80;39.30;;;;;;5057065;28;20069;-59
2022/05/10 11:47:34;;;;;;;4.90;3.40;;;29.10;43.40;;;;;;5060650;28;20012;-59
2022/05/10 11:50:09;;;;;;;3.85;2.70;;;28.70;40.10;;;;;;5049732;28;20045;-59
2022/05/10 11:53:01;;;;;;;7.22;3.38;;;28.90;39.30;;;;;;5075322;28;20021;-59
2022/05/10 11:55:54;;;;;;;9.15;4.00;;;29.00;40.40;;;;;;5075889;28;20140;-59
2022/05/10 11:58:23;;;;;;;10.55;3.70;;;28.80;40.60;;;;;;5075785;28;20028;-59
2022/05/10 12:00:57;;;;;;;16.25;3.28;;;28.80;42.00;;;;;;5075268;28;20040;-59
2022/05/10 12:03:36;;;;;;;6.85;2.67;;;28.20;43.40;;;;;;5075499;28;20029;-59
2022/05/10 12:06:24;;;;;;;6.60;3.35;;;27.80;45.80;;;;;;5075514;28;20386;-59
2022/05/10 12:08:59;;;;;;;7.25;2.80;;;27.60;43.40;;;;;;5074860;28;20024;-59
2022/05/10 12:11:30;;;;;;;5.18;3.22;;;27.40;44.50;;;;;;5075209;28;20024;-59
2022/05/10 12:22:58;;;;;;;6.72;3.17;;;28.20;42.10;;;;;;5066007;28;20032;-59
2022/05/10 12:25:59;;;;;;;8.05;3.13;;;28.30;37.60;;;;;;5031175;28;20055;-59
2022/05/10 12:28:37;;;;;;;;;;;28.00;39.30;;;;;;5068777;28;20039;-59
2022/05/10 12:31:34;;;;;;;5.65;2.92;;;27.60;38.70;;;;;;5074633;28;19923;-59
2022/05/10 12:34:09;;;;;;;7.43;3.50;;;27.10;40.10;;;;;;5055004;28;20025;-59
2022/05/10 12:36:41;;;;;;;16.42;4.43;;;26.90;40.30;;;;;;5054964;28;20501;-59
2022/05/10 12:39:29;;;;;;;6.65;3.85;;;27.10;42.40;;;;;;5054968;28;20355;-59
2022/05/10 12:42:06;;;;;;;8.52;3.05;;;27.20;45.00;;;;;;5067169;28;20029;-59
2022/05/10 12:44:32;;;;;;;8.35;3.85;;;27.30;41.20;;;;;;5074465;28;20064;-60
2022/05/10 12:47:26;;;;;;;23.00;5.82;;;27.10;43.70;;;;;;5074604;28;20060;-59
2022/05/10 12:50:19;;;;;;;13.93;4.90;;;27.00;44.70;;;;;;5074667;28;20115;-59
2022/05/10 12:52:47;;;;;;;8.68;4.30;;;26.80;46.00;;;;;;5074321;28;20051;-59
2022/05/10 12:55:35;;;;;;;12.38;4.72;;;26.70;48.00;;;;;;5074721;28;20043;-59
2022/05/10 12:58:03;;;;;;;14.93;4.40;;;26.60;48.50;;;;;;5074963;28;20031;-59
2022/05/10 13:00:40;;;;;;;13.95;5.25;;;26.50;47.00;;;;;;5074822;28;20037;-59
2022/05/10 13:03:22;;;;;;;15.52;5.65;;;26.30;45.20;;;;;;5074504;28;20021;-59
2022/05/10 13:06:17;;;;;;;16.38;5.38;;;26.50;46.20;;;;;;5074553;28;20090;-59
2022/05/10 13:09:04;;;;;;;12.68;5.18;;;26.30;48.10;;;;;;5074669;28;20040;-59
2022/05/10 13:11:45;;;;;;;8.82;4.32;;;26.30;48.60;;;;;;5072409;28;20040;-59
2022/05/10 13:14:11;;;;;;;;;;;26.20;48.70;;;;;;5074847;28;20063;-59
2022/05/10 13:16:47;;;;;;;17.85;6.18;;;26.00;48.70;;;;;;5074384;28;19908;-59
2022/05/10 13:19:13;;;;;;;21.23;5.35;;;25.80;49.30;;;;;;5074222;28;20117;-59
2022/05/10 13:21:39;;;;;;;12.68;5.00;;;25.70;51.40;;;;;;5074206;28;20063;-59
2022/05/10 13:24:12;;;;;;;16.55;6.30;;;25.50;51.70;;;;;;5073871;28;20032;-59
2022/05/10 13:26:59;;;;;;;19.00;6.80;;;25.50;53.30;;;;;;5074225;28;20028;-59
2022/05/10 13:29:41;;;;;;;16.42;5.65;;;25.50;53.40;;;;;;5073984;28;20028;-59
2022/05/10 13:32:12;;;;;;;19.48;6.10;;;25.30;54.30;;;;;;5074321;28;20094;-59
2022/05/10 13:34:50;;;;;;;25.13;7.43;;;25.20;56.40;;;;;;5074173;28;20021;-59